createdAt,value
2022-09-05T00:01:47.620Z,100939.56
2022-09-05T00:04:25.873Z,100936.28
2022-09-05T00:07:05.318Z,100942.75
2022-09-05T00:10:01.349Z,100944.78
2022-09-05T00:12:34.014Z,100943.00
2022-09-05T00:15:19.036Z,100944.00
2022-09-05T00:20:49.691Z,100943.78
2022-09-05T00:24:29.713Z,100937.34
2022-09-05T00:24:36.620Z,100943.78
2022-09-05T00:26:56.081Z,100945.81
2022-09-05T00:31:07.465Z,100936.50
2022-09-05T00:33:16.844Z,100935.66
2022-09-05T00:36:03.295Z,100934.94
2022-09-05T00:38:37.164Z,100932.78
2022-09-05T00:41:10.339Z,100934.66
2022-09-05T00:43:41.507Z,100932.84
2022-09-05T00:46:15.767Z,100935.63
2022-09-05T00:48:50.776Z,100940.88
2022-09-05T00:51:34.761Z,100942.69
2022-09-05T00:54:24.816Z,100939.16
2022-09-05T00:57:24.088Z,100942.03
2022-09-05T01:00:17.289Z,100947.38
2022-09-05T01:03:29.806Z,100940.38
2022-09-05T01:06:20.584Z,100946.59
2022-09-05T01:09:22.055Z,100943.19
2022-09-05T01:12:01.479Z,100950.44
2022-09-05T01:14:45.415Z,100942.53
2022-09-05T01:17:28.160Z,100938.22
2022-09-05T01:20:10.397Z,100937.50
2022-09-05T01:23:08.247Z,100939.09
2022-09-05T01:26:06.250Z,100938.31
2022-09-05T01:29:17.701Z,100930.75
2022-09-05T01:31:41.062Z,100937.78
2022-09-05T01:34:22.888Z,100932.50
2022-09-05T01:37:26.610Z,100939.44
2022-09-05T01:40:16.054Z,100940.38
2022-09-05T01:43:03.300Z,100933.63
2022-09-05T01:45:50.637Z,100937.38
2022-09-05T01:48:31.493Z,100934.50
2022-09-05T01:51:28.634Z,100939.81
2022-09-05T01:54:23.839Z,100935.41
2022-09-05T01:57:03.471Z,100935.34
2022-09-05T01:59:45.261Z,100937.22
2022-09-05T02:02:25.314Z,100942.69
2022-09-05T02:05:15.053Z,100931.25
2022-09-05T02:08:09.330Z,100933.09
2022-09-05T02:11:03.217Z,100937.47
2022-09-05T02:13:45.688Z,100936.69
2022-09-05T02:16:21.223Z,100939.34
2022-09-05T02:18:56.083Z,100934.03
2022-09-05T02:21:56.019Z,100942.00
2022-09-05T02:24:30.540Z,100932.28
2022-09-05T02:27:12.547Z,100935.97
2022-09-05T02:30:08.703Z,100934.31
2022-09-05T02:32:56.475Z,100942.28
2022-09-05T02:35:33.129Z,100936.09
2022-09-05T02:40:21.988Z,100939.75
2022-09-05T02:45:14.355Z,100938.50
2022-09-05T02:45:21.693Z,100939.16
2022-09-05T02:47:00.126Z,100940.28
2022-09-05T02:53:46.939Z,100940.16
2022-09-05T02:57:34.203Z,100946.88
2022-09-05T02:57:43.082Z,100944.94
2022-09-05T02:59:05.834Z,100945.59
2022-09-05T03:01:39.665Z,100948.25
2022-09-05T03:04:24.632Z,100952.00
2022-09-05T03:07:05.039Z,100953.88
2022-09-05T03:09:47.378Z,100951.66
2022-09-05T03:12:39.475Z,100945.84
2022-09-05T03:15:40.290Z,100951.75
2022-09-05T03:18:46.939Z,100957.28
2022-09-05T03:21:58.360Z,100956.56
2022-09-05T03:24:55.851Z,100960.31
2022-09-05T03:28:03.971Z,100957.78
2022-09-05T03:30:52.119Z,100957.66
2022-09-05T03:34:08.241Z,100962.97
2022-09-05T03:37:11.830Z,100960.72
2022-09-05T03:40:16.858Z,100968.66
2022-09-05T03:43:06.829Z,100971.38
2022-09-05T03:45:59.266Z,100974.09
2022-09-05T03:49:17.612Z,100976.75
2022-09-05T03:57:08.512Z,100978.69
2022-09-05T03:57:21.026Z,100983.41
2022-09-05T03:58:57.896Z,100983.84
2022-09-05T04:02:01.881Z,100985.03
2022-09-05T04:08:10.344Z,100977.84
2022-09-05T04:08:29.251Z,100981.44
2022-09-05T04:10:28.600Z,100985.88
2022-09-05T04:13:01.438Z,100987.50
2022-09-05T04:15:39.689Z,100998.19
2022-09-05T04:18:25.644Z,100999.06
2022-09-05T04:21:08.206Z,101005.97
2022-09-05T04:23:47.620Z,101006.22
2022-09-05T04:26:26.620Z,101014.88
2022-09-05T04:29:03.865Z,101010.41
2022-09-05T04:31:48.401Z,101023.50
2022-09-05T04:34:40.502Z,101016.19
2022-09-05T04:37:10.440Z,101018.72
2022-09-05T04:39:38.566Z,101020.44
2022-09-05T04:42:24.113Z,101029.75
2022-09-05T04:44:56.023Z,101018.03
2022-09-05T04:47:30.461Z,101028.41
2022-09-05T04:50:06.636Z,101022.84
2022-09-05T04:53:01.593Z,101027.25
2022-09-05T04:55:34.552Z,101027.91
2022-09-05T04:58:08.066Z,101033.88
2022-09-05T05:06:04.358Z,101029.28
2022-09-05T05:06:09.766Z,101033.53
2022-09-05T05:06:43.862Z,101034.22
2022-09-05T05:09:21.867Z,101036.31
2022-09-05T05:17:56.692Z,101035.97
2022-09-05T05:18:06.250Z,101048.25
2022-09-05T05:18:07.631Z,101043.59
2022-09-05T05:20:41.572Z,101039.69
2022-09-05T05:23:15.652Z,101046.78
2022-09-05T05:25:49.278Z,101045.53
2022-09-05T05:28:27.073Z,101040.16
2022-09-05T05:31:01.595Z,101046.63
2022-09-05T05:33:35.098Z,101052.41
2022-09-05T05:36:10.984Z,101047.50
2022-09-05T05:38:47.070Z,101046.31
2022-09-05T05:41:21.041Z,101057.44
2022-09-05T05:43:50.535Z,101059.56
2022-09-05T05:46:32.444Z,101059.91
2022-09-05T05:49:27.517Z,101060.16
2022-09-05T05:52:14.833Z,101054.13
2022-09-05T05:54:48.992Z,101057.88
2022-09-05T05:57:37.887Z,101049.34
2022-09-05T06:00:15.098Z,101046.09
2022-09-05T06:03:27.591Z,101050.69
2022-09-05T06:06:22.749Z,101049.59
2022-09-05T06:14:26.155Z,101049.94
2022-09-05T06:15:02.365Z,101050.28
2022-09-05T06:16:41.329Z,101053.09
2022-09-05T06:20:49.035Z,101052.69
2022-09-05T06:23:10.601Z,101055.81
2022-09-05T06:26:32.095Z,101048.13
2022-09-05T06:29:09.720Z,101050.16
2022-09-05T06:32:03.377Z,101056.66
2022-09-05T06:34:58.108Z,101055.16
2022-09-05T06:37:40.313Z,101051.84
2022-09-05T06:40:19.832Z,101059.38
2022-09-05T06:43:11.043Z,101063.03
2022-09-05T06:45:58.909Z,101060.56
2022-09-05T06:48:46.093Z,101063.25
2022-09-05T06:51:49.548Z,101062.47
2022-09-05T06:55:12.593Z,101062.84
2022-09-05T06:58:10.681Z,101056.78
2022-09-05T07:00:47.525Z,101059.63
2022-09-05T07:03:27.677Z,101059.00
2022-09-05T07:05:59.936Z,101057.66
2022-09-05T07:08:39.283Z,101064.34
2022-09-05T07:11:16.302Z,101063.97
2022-09-05T07:13:57.258Z,101056.25
2022-09-05T07:16:39.089Z,101061.09
2022-09-05T07:19:27.466Z,101072.13
2022-09-05T07:22:46.222Z,101062.75
2022-09-05T07:25:09.187Z,101069.47
2022-09-05T07:28:25.716Z,101067.94
2022-09-05T07:30:32.391Z,101068.03
2022-09-05T07:33:05.109Z,101071.97
2022-09-05T07:35:38.444Z,101069.94
2022-09-05T07:38:16.135Z,101064.16
2022-09-05T07:40:52.556Z,101069.22
2022-09-05T07:43:24.107Z,101069.91
2022-09-05T07:46:11.304Z,101067.59
2022-09-05T07:48:44.519Z,101066.38
2022-09-05T07:56:48.158Z,101070.47
2022-09-05T07:56:58.767Z,101061.19
2022-09-05T07:57:31.221Z,101063.56
2022-09-05T08:00:05.852Z,101067.59
2022-09-05T08:02:46.968Z,101069.47
2022-09-05T08:05:34.771Z,101066.91
2022-09-05T08:08:09.050Z,101059.16
2022-09-05T08:11:22.275Z,101065.97
2022-09-05T08:13:49.734Z,101054.81
2022-09-05T08:16:22.644Z,101065.44
2022-09-05T08:18:56.347Z,101057.84
2022-09-05T08:21:28.802Z,101061.72
2022-09-05T08:24:02.098Z,101057.25
2022-09-05T08:26:47.264Z,101056.34
2022-09-05T08:29:28.373Z,101057.50
2022-09-05T08:32:02.576Z,101050.06
2022-09-05T08:34:44.959Z,101047.94
2022-09-05T08:37:20.780Z,101059.28
2022-09-05T08:39:57.511Z,101061.84
2022-09-05T08:44:14.949Z,101064.88
2022-09-05T08:46:43.349Z,101066.19
2022-09-05T08:48:52.724Z,101052.50
2022-09-05T08:51:30.831Z,101058.53
2022-09-05T08:54:25.854Z,101059.25
2022-09-05T08:56:59.486Z,101051.75
2022-09-05T08:59:33.290Z,101050.31
2022-09-05T09:02:48.021Z,101048.69
2022-09-05T09:05:58.057Z,101043.75
2022-09-05T09:08:23.865Z,101038.56
2022-09-05T09:10:59.532Z,101043.16
2022-09-05T09:13:52.274Z,101035.41
2022-09-05T09:16:31.003Z,101033.84
2022-09-05T09:19:13.377Z,101028.75
2022-09-05T09:21:48.434Z,101026.41
2022-09-05T09:24:31.474Z,101023.97
2022-09-05T09:27:04.708Z,101022.91
2022-09-05T09:29:38.289Z,101020.09
2022-09-05T09:32:13.348Z,101018.75
2022-09-05T09:34:52.861Z,101019.06
2022-09-05T09:37:51.804Z,101019.72
2022-09-05T09:40:33.236Z,101024.09
2022-09-05T09:43:09.662Z,101027.56
2022-09-05T09:46:02.300Z,101024.28
2022-09-05T09:48:53.929Z,101032.50
2022-09-05T09:51:40.073Z,101027.25
2022-09-05T09:54:34.605Z,101023.25
2022-09-05T09:57:41.806Z,101022.28
2022-09-05T10:00:18.162Z,101016.72
2022-09-05T10:06:20.099Z,101014.78
2022-09-05T10:10:51.337Z,101019.09
2022-09-05T10:11:24.547Z,101016.75
2022-09-05T10:13:17.580Z,101007.50
2022-09-05T10:16:09.718Z,101010.72
2022-09-05T10:18:54.530Z,101008.00
2022-09-05T10:22:34.253Z,101005.63
2022-09-05T10:25:22.877Z,101001.66
2022-09-05T10:28:07.821Z,101005.56
2022-09-05T10:33:06.637Z,101002.56
2022-09-05T10:35:10.732Z,100999.13
2022-09-05T10:36:40.282Z,100989.47
2022-09-05T10:39:18.726Z,100996.50
2022-09-05T10:41:53.585Z,100991.38
2022-09-05T10:44:32.129Z,100992.03
2022-09-05T10:47:11.912Z,100980.94
2022-09-05T10:49:45.136Z,100984.56
2022-09-05T10:52:18.850Z,100978.16
2022-09-05T10:55:15.244Z,100972.38
2022-09-05T10:57:57.534Z,100970.09
2022-09-05T11:02:20.975Z,100966.97
2022-09-05T11:03:46.792Z,100975.72
2022-09-05T11:06:24.820Z,100972.81
2022-09-05T11:09:03.270Z,100973.44
2022-09-05T11:11:46.073Z,100975.47
2022-09-05T11:14:35.335Z,100964.53
2022-09-05T11:17:14.126Z,100968.16
2022-09-05T11:19:46.132Z,100960.66
2022-09-05T11:22:23.961Z,100961.91
2022-09-05T11:24:56.667Z,100959.13
2022-09-05T11:27:33.338Z,100965.53
2022-09-05T11:30:06.653Z,100956.66
2022-09-05T11:39:12.150Z,100952.28
2022-09-05T11:39:50.617Z,100949.28
2022-09-05T11:40:24.712Z,100953.84
2022-09-05T11:42:29.437Z,100956.75
2022-09-05T11:45:15.848Z,100948.63
2022-09-05T11:48:12.911Z,100958.44
2022-09-05T11:51:16.413Z,100947.19
2022-09-05T11:54:11.230Z,100944.44
2022-09-05T11:57:32.750Z,100947.72
2022-09-05T12:00:32.813Z,100947.72
2022-09-05T12:04:00.097Z,100948.31
2022-09-05T12:06:57.317Z,100940.81
2022-09-05T12:09:44.436Z,100943.41
2022-09-05T12:12:41.064Z,100936.09
2022-09-05T12:15:26.569Z,100940.72
2022-09-05T12:18:18.849Z,100932.84
2022-09-05T12:21:10.290Z,100932.25
2022-09-05T12:24:50.033Z,100938.25
2022-09-05T12:27:36.072Z,100936.19
2022-09-05T12:29:46.874Z,100929.53
2022-09-05T12:34:49.129Z,100926.75
2022-09-05T12:36:07.821Z,100921.69
2022-09-05T12:40:43.290Z,100932.31
2022-09-05T12:41:44.119Z,100917.59
2022-09-05T12:44:40.995Z,100920.84
2022-09-05T12:47:17.189Z,100910.53
2022-09-05T12:50:02.893Z,100908.84
2022-09-05T12:52:46.472Z,100910.94
2022-09-05T12:55:26.198Z,100910.56
2022-09-05T13:02:56.831Z,100903.84
2022-09-05T13:03:09.840Z,100901.81
2022-09-05T13:04:16.265Z,100896.47
2022-09-05T13:06:40.997Z,100902.81
2022-09-05T13:09:11.689Z,100900.97
2022-09-05T13:15:03.095Z,100895.97
2022-09-05T13:15:14.160Z,100885.53
2022-09-05T13:17:51.600Z,100887.88
2022-09-05T13:20:34.161Z,100892.16
2022-09-05T13:23:11.429Z,100885.50
2022-09-05T13:25:42.965Z,100887.63
2022-09-05T13:28:14.306Z,100878.84
2022-09-05T13:37:14.847Z,100882.63
2022-09-05T13:38:00.574Z,100877.69
2022-09-05T13:38:02.581Z,100884.81
2022-09-05T13:39:40.322Z,100879.75
2022-09-05T13:42:18.158Z,100877.19
2022-09-05T13:44:47.875Z,100879.03
2022-09-05T13:47:30.717Z,100880.03
2022-09-05T13:50:17.490Z,100880.06
2022-09-05T13:52:52.747Z,100865.25
2022-09-05T13:55:25.084Z,100873.44
2022-09-05T13:57:59.549Z,100870.66
2022-09-05T14:01:06.350Z,100866.34
2022-09-05T14:04:11.742Z,100862.44
2022-09-05T14:10:28.459Z,100858.59
2022-09-05T14:13:02.510Z,100858.75
2022-09-05T14:15:39.849Z,100840.19
2022-09-05T14:18:20.226Z,100853.16
2022-09-05T14:21:12.979Z,100850.06
2022-09-05T14:23:53.815Z,100832.31
2022-09-05T14:26:30.824Z,100828.66
2022-09-05T14:29:03.696Z,100828.38
2022-09-05T14:37:39.636Z,100836.78
2022-09-05T14:37:48.158Z,100835.50
2022-09-05T14:38:09.491Z,100834.09
2022-09-05T14:41:29.381Z,100836.66
2022-09-05T14:44:21.598Z,100832.31
2022-09-05T14:47:32.562Z,100830.59
2022-09-05T14:50:20.758Z,100832.66
2022-09-05T14:57:02.091Z,100828.38
2022-09-05T15:02:43.093Z,100830.13
2022-09-05T15:02:56.289Z,100829.25
2022-09-05T15:04:44.632Z,100829.78
2022-09-05T15:07:19.521Z,100829.09
2022-09-05T15:12:20.001Z,100823.94
2022-09-05T15:12:52.072Z,100819.88
2022-09-05T15:15:28.723Z,100823.03
2022-09-05T15:18:01.298Z,100821.53
2022-09-05T15:20:33.235Z,100823.81
2022-09-05T15:23:08.361Z,100816.84
2022-09-05T15:25:47.492Z,100821.59
2022-09-05T15:28:31.377Z,100827.03
2022-09-05T15:31:01.654Z,100827.38
2022-09-05T15:33:32.351Z,100818.72
2022-09-05T15:36:01.796Z,100818.25
2022-09-05T15:38:55.147Z,100812.41
2022-09-05T15:41:25.368Z,100812.16
2022-09-05T15:44:01.101Z,100813.72
2022-09-05T15:46:42.398Z,100806.22
2022-09-05T15:49:14.288Z,100813.91
2022-09-05T15:51:48.075Z,100813.53
2022-09-05T15:54:33.879Z,100805.25
2022-09-05T15:57:15.272Z,100809.69
2022-09-05T15:59:52.088Z,100809.72
2022-09-05T16:02:25.339Z,100806.59
2022-09-05T16:10:29.838Z,100802.41
2022-09-05T16:10:37.268Z,100801.50
2022-09-05T16:11:17.671Z,100802.97
2022-09-05T16:13:53.161Z,100796.25
2022-09-05T16:23:19.404Z,100794.22
2022-09-05T16:23:19.503Z,100794.03
2022-09-05T16:23:34.730Z,100786.13
2022-09-05T16:25:04.788Z,100783.78
2022-09-05T16:27:43.942Z,100784.69
2022-09-05T16:30:20.753Z,100779.84
2022-09-05T16:32:51.828Z,100780.59
2022-09-05T16:35:26.296Z,100778.34
2022-09-05T16:38:04.077Z,100775.03
2022-09-05T16:40:36.848Z,100779.03
2022-09-05T16:43:10.331Z,100781.97
2022-09-05T16:45:46.810Z,100769.97
2022-09-05T16:48:31.839Z,100780.47
2022-09-05T16:51:13.396Z,100773.19
2022-09-05T16:53:59.126Z,100778.03
2022-09-05T16:56:34.455Z,100773.34
2022-09-05T16:59:07.481Z,100774.28
2022-09-05T17:02:00.587Z,100783.84
2022-09-05T17:05:03.228Z,100783.47
2022-09-05T17:07:44.235Z,100782.84
2022-09-05T17:10:19.028Z,100779.59
2022-09-05T17:12:51.722Z,100780.22
2022-09-05T17:15:23.660Z,100779.63
2022-09-05T17:18:20.193Z,100780.66
2022-09-05T17:20:52.239Z,100781.22
2022-09-05T17:26:13.209Z,100777.66
2022-09-05T17:29:32.593Z,100784.38
2022-09-05T17:32:36.220Z,100789.06
2022-09-05T17:35:17.200Z,100791.34
2022-09-05T17:38:22.105Z,100784.22
2022-09-05T17:41:09.429Z,100791.34
2022-09-05T17:43:41.061Z,100785.16
2022-09-05T17:46:17.736Z,100783.56
2022-09-05T17:49:19.029Z,100792.75
2022-09-05T17:52:28.156Z,100794.72
2022-09-05T17:54:59.876Z,100796.56
2022-09-05T17:57:42.181Z,100801.84
2022-09-05T18:01:01.301Z,100810.22
2022-09-05T18:04:11.117Z,100811.56
2022-09-05T18:09:59.041Z,100817.00
2022-09-05T18:13:12.889Z,100825.50
2022-09-05T18:16:12.524Z,100819.91
2022-09-05T18:19:27.934Z,100814.28
2022-09-05T18:24:41.831Z,100818.47
2022-09-05T18:27:43.028Z,100814.50
2022-09-05T18:30:25.439Z,100810.53
2022-09-05T18:33:54.332Z,100817.72
2022-09-05T18:36:36.009Z,100826.06
2022-09-05T18:39:44.432Z,100817.13
2022-09-05T18:42:33.421Z,100822.91
2022-09-05T18:45:14.487Z,100834.56
2022-09-05T18:47:52.621Z,100838.31
2022-09-05T18:50:32.328Z,100836.81
2022-09-05T18:53:09.991Z,100842.19
2022-09-05T18:56:13.180Z,100841.19
2022-09-05T18:58:51.614Z,100836.78
2022-09-05T19:01:35.006Z,100837.53
2022-09-05T19:04:07.232Z,100833.84
2022-09-05T19:06:45.319Z,100837.75
2022-09-05T19:09:26.761Z,100826.47
2022-09-05T19:12:33.518Z,100830.63
2022-09-05T19:14:53.535Z,100826.91
2022-09-05T19:17:31.668Z,100832.66
2022-09-05T19:20:33.035Z,100829.44
2022-09-05T19:23:11.877Z,100828.81
2022-09-05T19:25:43.803Z,100826.47
2022-09-05T19:36:44.419Z,100817.25
2022-09-05T19:36:52.472Z,100821.72
2022-09-05T19:37:05.474Z,100818.59
2022-09-05T19:37:58.570Z,100806.97
2022-09-05T19:42:49.493Z,100809.34
2022-09-05T19:47:45.139Z,100809.78
2022-09-05T19:47:48.946Z,100807.69
2022-09-05T19:48:21.239Z,100815.34
2022-09-05T19:50:49.887Z,100812.41
2022-09-05T19:53:20.170Z,100812.66
2022-09-05T19:55:49.504Z,100807.22
2022-09-05T19:58:20.962Z,100806.94
2022-09-05T20:01:02.620Z,100805.09
2022-09-05T20:03:39.367Z,100803.59
2022-09-05T20:06:29.291Z,100805.88
2022-09-05T20:09:10.250Z,100806.31
2022-09-05T20:11:46.437Z,100812.47
2022-09-05T20:14:29.144Z,100810.09
2022-09-05T20:17:18.454Z,100815.44
2022-09-05T20:19:47.186Z,100815.44
2022-09-05T20:22:49.558Z,100815.44
2022-09-05T20:25:19.821Z,100818.75
2022-09-05T20:28:09.780Z,100813.09
2022-09-05T20:30:42.606Z,100815.66
2022-09-05T20:33:18.623Z,100820.41
2022-09-05T20:40:51.222Z,100817.19
2022-09-05T20:43:21.003Z,100822.19
2022-09-05T20:43:36.453Z,100821.31
2022-09-05T20:44:23.029Z,100811.09
2022-09-05T20:53:49.283Z,100820.53
2022-09-05T20:54:15.236Z,100813.41
2022-09-05T20:54:25.371Z,100816.31
2022-09-05T20:58:15.494Z,100816.59
2022-09-05T21:01:19.530Z,100820.13
2022-09-05T21:03:39.796Z,100818.41
2022-09-05T21:06:22.165Z,100817.56
2022-09-05T21:08:52.378Z,100818.53
2022-09-05T21:11:30.901Z,100823.22
2022-09-05T21:14:03.515Z,100815.34
2022-09-05T21:16:35.553Z,100815.47
2022-09-05T21:19:04.357Z,100810.09
2022-09-05T21:21:35.672Z,100813.63
2022-09-05T21:24:18.101Z,100815.69
2022-09-05T21:26:49.545Z,100811.91
2022-09-05T21:29:27.426Z,100821.06
2022-09-05T21:32:03.993Z,100818.59
2022-09-05T21:34:45.150Z,100818.03
2022-09-05T21:37:17.177Z,100819.22
2022-09-05T21:39:59.991Z,100821.25
2022-09-05T21:45:16.732Z,100820.41
2022-09-05T21:47:44.678Z,100815.78
2022-09-05T21:48:08.845Z,100812.03
2022-09-05T21:50:41.834Z,100820.19
2022-09-05T21:57:21.840Z,100814.16
2022-09-05T21:59:14.925Z,100813.22
2022-09-05T21:59:24.727Z,100819.09
2022-09-05T22:01:57.472Z,100825.13
2022-09-05T22:04:26.396Z,100816.09
2022-09-05T22:07:03.692Z,100814.28
2022-09-05T22:09:33.335Z,100821.78
2022-09-05T22:12:06.152Z,100819.22
2022-09-05T22:14:45.432Z,100814.28
2022-09-05T22:17:14.205Z,100809.84
2022-09-05T22:19:42.381Z,100821.88
2022-09-05T22:22:17.170Z,100812.09
2022-09-05T22:24:54.290Z,100808.31
2022-09-05T22:27:25.991Z,100811.56
2022-09-05T22:29:55.532Z,100810.38
2022-09-05T22:32:32.311Z,100814.97
2022-09-05T22:35:16.040Z,100809.16
2022-09-05T22:38:00.303Z,100802.91
2022-09-05T22:40:31.839Z,100806.47
2022-09-05T22:43:01.626Z,100801.84
2022-09-05T22:45:31.374Z,100796.47
2022-09-05T22:47:59.737Z,100800.88
2022-09-05T22:50:28.007Z,100797.22
2022-09-05T22:52:56.145Z,100796.19
2022-09-05T22:55:24.362Z,100802.09
2022-09-05T22:57:53.868Z,100787.91
2022-09-05T23:00:22.450Z,100784.16
2022-09-05T23:02:52.814Z,100791.25
2022-09-05T23:05:21.430Z,100791.03
2022-09-05T23:07:49.740Z,100789.53
2022-09-05T23:10:18.592Z,100796.06
2022-09-05T23:12:47.134Z,100789.84
2022-09-05T23:15:16.902Z,100788.25
2022-09-05T23:17:45.023Z,100784.78
2022-09-05T23:20:13.424Z,100787.56
2022-09-05T23:22:43.094Z,100786.81
2022-09-05T23:25:11.818Z,100786.81
2022-09-05T23:27:40.160Z,100778.53
2022-09-05T23:30:09.703Z,100774.25
2022-09-05T23:32:45.190Z,100778.88
2022-09-05T23:35:13.758Z,100786.38
2022-09-05T23:37:44.315Z,100775.84
2022-09-05T23:40:13.706Z,100779.59
2022-09-05T23:42:42.291Z,100775.84
2022-09-05T23:45:12.666Z,100777.75
2022-09-05T23:47:42.166Z,100776.47
2022-09-05T23:50:11.959Z,100772.84
2022-09-05T23:52:41.038Z,100766.81
2022-09-05T23:55:10.437Z,100766.97
2022-09-05T23:57:38.916Z,100758.38
